createdAt,value
2022-10-10T00:01:33.383Z,8.55
2022-10-10T00:04:01.580Z,8.37
2022-10-10T00:06:33.066Z,8.62
2022-10-10T00:09:01.474Z,8.58
2022-10-10T00:11:29.358Z,8.57
2022-10-10T00:13:56.710Z,8.59
2022-10-10T00:16:23.747Z,8.63
2022-10-10T00:18:52.080Z,8.51
2022-10-10T00:21:19.227Z,8.52
2022-10-10T00:23:46.139Z,8.57
2022-10-10T00:26:18.515Z,8.51
2022-10-10T00:28:47.460Z,8.49
2022-10-10T00:31:14.972Z,8.51
2022-10-10T00:33:41.970Z,8.40
2022-10-10T00:36:08.987Z,8.43
2022-10-10T00:38:35.903Z,8.43
2022-10-10T00:41:04.209Z,8.38
2022-10-10T00:43:33.155Z,8.39
2022-10-10T00:46:00.226Z,8.34
2022-10-10T00:48:35.075Z,8.33
2022-10-10T00:51:14.942Z,8.20
2022-10-10T00:53:55.502Z,8.25
2022-10-10T00:56:37.929Z,8.33
2022-10-10T00:59:08.710Z,8.26
2022-10-10T01:01:35.682Z,8.20
2022-10-10T01:04:02.973Z,8.18
2022-10-10T01:06:31.198Z,8.16
2022-10-10T01:08:58.650Z,8.21
2022-10-10T01:11:57.595Z,8.15
2022-10-10T01:15:32.363Z,8.20
2022-10-10T01:18:20.666Z,8.15
2022-10-10T01:20:59.629Z,8.02
2022-10-10T01:24:02.734Z,8.13
2022-10-10T01:27:31.704Z,8.14
2022-10-10T01:30:08.785Z,8.16
2022-10-10T01:33:07.172Z,8.09
2022-10-10T01:36:26.331Z,8.05
2022-10-10T01:39:39.549Z,7.94
2022-10-10T01:42:43.623Z,7.97
2022-10-10T01:45:11.720Z,7.92
2022-10-10T01:47:39.105Z,7.85
2022-10-10T01:50:17.358Z,7.79
2022-10-10T01:53:05.512Z,7.89
2022-10-10T01:56:08.978Z,7.88
2022-10-10T01:59:27.338Z,7.76
2022-10-10T02:02:30.043Z,7.89
2022-10-10T02:05:08.831Z,7.87
2022-10-10T02:08:10.290Z,7.93
2022-10-10T02:11:00.650Z,7.78
2022-10-10T02:14:08.225Z,7.76
2022-10-10T02:16:41.008Z,7.76
2022-10-10T02:19:13.015Z,7.81
2022-10-10T02:21:42.405Z,7.82
2022-10-10T02:24:13.014Z,7.68
2022-10-10T02:26:46.839Z,7.72
2022-10-10T02:29:37.446Z,7.41
2022-10-10T02:32:22.406Z,7.43
2022-10-10T02:34:55.629Z,7.37
2022-10-10T02:37:24.299Z,7.33
2022-10-10T02:40:00.099Z,7.32
2022-10-10T02:42:28.857Z,7.43
2022-10-10T02:44:56.885Z,7.23
2022-10-10T02:47:23.982Z,7.04
2022-10-10T02:49:52.253Z,7.04
2022-10-10T02:52:19.719Z,7.12
2022-10-10T02:54:46.803Z,7.21
2022-10-10T02:57:14.096Z,7.14
2022-10-10T02:59:41.253Z,7.01
2022-10-10T03:02:08.349Z,6.94
2022-10-10T03:04:36.553Z,6.68
2022-10-10T03:07:04.723Z,6.67
2022-10-10T03:09:31.884Z,6.93
2022-10-10T03:11:58.868Z,6.73
2022-10-10T03:14:25.803Z,6.86
2022-10-10T03:16:53.070Z,6.83
2022-10-10T03:19:20.189Z,6.81
2022-10-10T03:21:47.196Z,6.83
2022-10-10T03:24:14.176Z,6.94
2022-10-10T03:26:41.213Z,6.89
2022-10-10T03:29:08.498Z,7.01
2022-10-10T03:31:35.426Z,7.06
2022-10-10T03:34:02.381Z,7.06
2022-10-10T03:36:30.740Z,7.01
2022-10-10T03:38:57.775Z,7.11
2022-10-10T03:41:24.757Z,7.03
2022-10-10T03:43:51.831Z,7.05
2022-10-10T03:46:18.748Z,6.73
2022-10-10T03:48:45.719Z,6.93
2022-10-10T03:51:15.966Z,6.94
2022-10-10T03:53:42.870Z,7.04
2022-10-10T03:56:09.781Z,6.81
2022-10-10T03:58:36.741Z,6.98
2022-10-10T04:01:05.197Z,6.92
2022-10-10T04:03:32.707Z,6.84
2022-10-10T04:05:59.985Z,6.68
2022-10-10T04:08:28.093Z,6.55
2022-10-10T04:10:55.654Z,6.25
2022-10-10T04:13:25.605Z,6.04
2022-10-10T04:15:55.606Z,6.25
2022-10-10T04:18:24.889Z,6.42
2022-10-10T04:20:52.586Z,6.45
2022-10-10T04:23:20.641Z,6.52
2022-10-10T04:25:51.381Z,6.45
2022-10-10T04:28:19.062Z,6.48
2022-10-10T04:30:46.468Z,6.48
2022-10-10T04:33:24.706Z,6.47
2022-10-10T04:35:51.614Z,6.32
2022-10-10T04:38:21.240Z,6.43
2022-10-10T04:40:51.301Z,6.56
2022-10-10T04:43:18.957Z,6.52
2022-10-10T04:45:46.190Z,6.42
2022-10-10T04:48:13.264Z,6.48
2022-10-10T04:50:40.403Z,6.43
2022-10-10T04:53:07.547Z,6.63
2022-10-10T04:55:34.817Z,6.50
2022-10-10T04:58:01.726Z,6.27
2022-10-10T05:00:28.761Z,6.34
2022-10-10T05:02:55.947Z,6.37
2022-10-10T05:05:22.967Z,6.52
2022-10-10T05:07:55.119Z,6.42
2022-10-10T05:10:26.050Z,6.30
2022-10-10T05:12:53.719Z,6.30
2022-10-10T05:15:24.456Z,6.39
2022-10-10T05:17:51.422Z,6.46
2022-10-10T05:20:18.416Z,6.62
2022-10-10T05:22:46.798Z,6.67
2022-10-10T05:25:16.110Z,6.35
2022-10-10T05:27:43.076Z,6.37
2022-10-10T05:30:11.018Z,6.46
2022-10-10T05:32:38.076Z,6.59
2022-10-10T05:35:06.218Z,6.42
2022-10-10T05:37:36.375Z,6.09
2022-10-10T05:40:04.238Z,6.21
2022-10-10T05:42:31.171Z,6.34
2022-10-10T05:44:58.510Z,6.37
2022-10-10T05:47:27.969Z,6.38
2022-10-10T05:49:55.287Z,6.29
2022-10-10T05:52:22.222Z,6.33
2022-10-10T05:54:49.183Z,6.54
2022-10-10T05:57:16.650Z,6.61
2022-10-10T05:59:43.658Z,6.51
2022-10-10T06:02:13.816Z,6.23
2022-10-10T06:04:41.337Z,6.13
2022-10-10T06:07:09.506Z,6.47
2022-10-10T06:09:36.532Z,6.42
2022-10-10T06:12:03.585Z,6.33
2022-10-10T06:14:30.531Z,6.42
2022-10-10T06:16:57.728Z,6.77
2022-10-10T06:19:24.730Z,6.87
2022-10-10T06:21:51.681Z,7.02
2022-10-10T06:24:18.764Z,7.25
2022-10-10T06:26:45.743Z,7.38
2022-10-10T06:29:12.852Z,7.59
2022-10-10T06:31:44.570Z,7.85
2022-10-10T06:34:11.625Z,7.91
2022-10-10T06:36:38.558Z,7.75
2022-10-10T06:39:05.512Z,7.66
2022-10-10T06:41:32.563Z,7.91
2022-10-10T06:43:59.468Z,8.00
2022-10-10T06:46:26.419Z,8.00
2022-10-10T06:48:53.322Z,8.15
2022-10-10T06:51:20.987Z,8.07
2022-10-10T06:53:48.054Z,8.11
2022-10-10T06:56:26.326Z,8.28
2022-10-10T06:58:54.346Z,8.25
2022-10-10T07:01:24.303Z,8.33
2022-10-10T07:03:51.372Z,8.41
2022-10-10T07:06:18.435Z,8.58
2022-10-10T07:08:45.434Z,8.78
2022-10-10T07:11:12.689Z,8.93
2022-10-10T07:13:40.409Z,8.96
2022-10-10T07:16:07.870Z,9.05
2022-10-10T07:18:36.721Z,9.02
2022-10-10T07:21:05.174Z,8.97
2022-10-10T07:23:34.927Z,9.28
2022-10-10T07:26:12.573Z,9.30
2022-10-10T07:28:40.169Z,9.39
2022-10-10T07:31:10.993Z,9.52
2022-10-10T07:33:49.936Z,9.57
2022-10-10T07:36:18.438Z,9.62
2022-10-10T07:38:49.752Z,9.70
2022-10-10T07:41:16.642Z,9.81
2022-10-10T07:43:43.683Z,9.80
2022-10-10T07:46:18.840Z,9.93
2022-10-10T07:48:46.589Z,10.22
2022-10-10T07:51:13.545Z,9.90
2022-10-10T07:53:41.388Z,10.41
2022-10-10T07:56:09.833Z,10.34
2022-10-10T07:58:37.151Z,10.44
2022-10-10T08:01:10.633Z,10.52
2022-10-10T08:03:38.201Z,10.27
2022-10-10T08:06:09.134Z,10.29
2022-10-10T08:08:44.846Z,10.33
2022-10-10T08:11:18.321Z,10.39
2022-10-10T08:13:45.332Z,10.59
2022-10-10T08:16:12.575Z,10.70
2022-10-10T08:18:39.742Z,10.65
2022-10-10T08:21:12.369Z,10.83
2022-10-10T08:23:40.140Z,10.87
2022-10-10T08:26:11.974Z,10.81
2022-10-10T08:28:40.169Z,10.88
2022-10-10T08:31:15.607Z,10.90
2022-10-10T08:33:45.964Z,11.12
2022-10-10T08:36:32.613Z,10.66
2022-10-10T08:39:00.966Z,10.90
2022-10-10T08:41:52.279Z,11.02
2022-10-10T08:44:51.499Z,11.33
2022-10-10T08:47:39.079Z,11.16
2022-10-10T08:50:21.406Z,11.59
2022-10-10T08:53:13.724Z,12.04
2022-10-10T08:55:43.870Z,11.84
2022-10-10T08:58:42.099Z,12.12
2022-10-10T09:01:28.078Z,12.29
2022-10-10T09:04:04.205Z,12.11
2022-10-10T09:06:53.991Z,12.64
2022-10-10T09:09:57.099Z,12.62
2022-10-10T09:13:18.979Z,12.83
2022-10-10T09:15:59.870Z,12.92
2022-10-10T09:19:00.766Z,13.10
2022-10-10T09:21:38.911Z,13.02
2022-10-10T09:24:42.603Z,13.00
2022-10-10T09:27:24.783Z,13.41
2022-10-10T09:30:20.111Z,13.38
2022-10-10T09:33:22.730Z,13.47
2022-10-10T09:35:52.772Z,13.31
2022-10-10T09:38:56.591Z,14.02
2022-10-10T09:41:40.958Z,13.76
2022-10-10T09:44:14.193Z,13.95
2022-10-10T09:46:41.204Z,14.51
2022-10-10T09:49:14.261Z,14.19
2022-10-10T09:51:41.302Z,14.26
2022-10-10T09:54:08.501Z,14.39
2022-10-10T09:56:50.913Z,15.06
2022-10-10T09:59:45.206Z,15.16
2022-10-10T10:06:38.468Z,15.36
2022-10-10T10:09:06.751Z,15.32
2022-10-10T10:11:41.688Z,15.37
2022-10-10T10:14:37.921Z,15.62
2022-10-10T10:17:16.968Z,15.11
2022-10-10T10:19:46.815Z,14.54
2022-10-10T10:22:38.326Z,15.04
2022-10-10T10:25:33.734Z,14.89
2022-10-10T10:28:12.908Z,15.07
2022-10-10T10:30:40.957Z,15.44
2022-10-10T10:33:47.864Z,15.76
2022-10-10T10:36:46.709Z,15.80
2022-10-10T10:39:55.205Z,15.29
2022-10-10T10:42:52.806Z,15.30
2022-10-10T10:46:01.263Z,15.56
2022-10-10T10:49:10.189Z,15.26
2022-10-10T10:52:04.610Z,15.51
2022-10-10T10:55:14.548Z,16.04
2022-10-10T10:59:22.545Z,16.32
2022-10-10T11:01:58.016Z,16.36
2022-10-10T11:05:21.128Z,16.39
2022-10-10T11:08:24.503Z,16.51
2022-10-10T11:11:37.341Z,17.00
2022-10-10T11:15:16.164Z,16.55
2022-10-10T11:18:10.710Z,17.29
2022-10-10T11:20:55.262Z,17.17
2022-10-10T11:23:52.523Z,17.13
2022-10-10T11:26:42.237Z,16.48
2022-10-10T11:29:34.299Z,17.14
2022-10-10T11:32:22.148Z,17.70
2022-10-10T11:35:13.457Z,17.38
2022-10-10T11:37:49.265Z,17.98
2022-10-10T11:41:02.854Z,18.04
2022-10-10T11:44:28.390Z,17.53
2022-10-10T11:47:29.636Z,18.02
2022-10-10T11:50:27.462Z,17.92
2022-10-10T11:53:44.262Z,17.72
2022-10-10T11:56:41.216Z,17.76
2022-10-10T11:59:27.838Z,17.63
2022-10-10T12:02:02.553Z,18.01
2022-10-10T12:04:37.195Z,18.12
2022-10-10T12:07:18.393Z,19.13
2022-10-10T12:10:00.437Z,18.86
2022-10-10T12:12:44.029Z,18.16
2022-10-10T12:15:26.513Z,18.37
2022-10-10T12:17:53.878Z,18.69
2022-10-10T12:20:20.563Z,18.78
2022-10-10T12:23:30.889Z,18.87
2022-10-10T12:25:58.372Z,19.58
2022-10-10T12:29:02.887Z,19.10
2022-10-10T12:31:38.425Z,18.90
2022-10-10T12:34:48.434Z,18.63
2022-10-10T12:37:32.087Z,19.57
2022-10-10T12:40:08.125Z,19.29
2022-10-10T12:42:48.408Z,19.32
2022-10-10T12:45:38.445Z,18.68
2022-10-10T12:48:19.924Z,19.41
2022-10-10T12:51:01.509Z,18.58
2022-10-10T12:53:34.077Z,19.22
2022-10-10T12:56:03.018Z,19.52
2022-10-10T12:58:39.801Z,19.01
2022-10-10T13:01:29.115Z,19.14
2022-10-10T13:03:56.641Z,19.75
2022-10-10T13:06:43.461Z,19.44
2022-10-10T13:09:35.088Z,19.50
2022-10-10T13:12:06.985Z,19.51
2022-10-10T13:14:45.503Z,19.53
2022-10-10T13:17:31.565Z,19.72
2022-10-10T13:20:01.713Z,18.98
2022-10-10T13:22:33.013Z,19.60
2022-10-10T13:25:17.730Z,19.44
2022-10-10T13:27:44.936Z,19.51
2022-10-10T13:30:22.685Z,19.37
2022-10-10T13:32:51.434Z,19.45
2022-10-10T13:35:27.469Z,19.58
2022-10-10T13:38:00.841Z,19.41
2022-10-10T13:40:28.602Z,19.64
2022-10-10T13:42:56.437Z,20.10
2022-10-10T13:45:27.897Z,19.13
2022-10-10T13:48:03.347Z,19.21
2022-10-10T13:51:14.803Z,18.90
2022-10-10T13:53:47.443Z,18.62
2022-10-10T13:56:23.189Z,18.87
2022-10-10T13:59:13.651Z,18.45
2022-10-10T14:01:54.610Z,19.13
2022-10-10T14:04:50.792Z,19.44
2022-10-10T14:07:30.818Z,19.14
2022-10-10T14:10:10.316Z,19.30
2022-10-10T14:12:53.508Z,19.38
2022-10-10T14:15:40.653Z,19.46
2022-10-10T14:18:26.528Z,19.24
2022-10-10T14:20:53.934Z,19.54
2022-10-10T14:23:21.894Z,19.66
2022-10-10T14:25:49.963Z,19.58
2022-10-10T14:28:26.073Z,19.69
2022-10-10T14:30:56.240Z,19.46
2022-10-10T14:33:23.857Z,19.48
2022-10-10T14:35:53.731Z,19.76
2022-10-10T14:38:21.282Z,19.32
2022-10-10T14:40:52.869Z,19.75
2022-10-10T14:43:20.722Z,19.49
2022-10-10T14:45:51.656Z,19.78
2022-10-10T14:48:19.118Z,19.64
2022-10-10T14:50:49.147Z,19.78
2022-10-10T14:53:17.030Z,19.43
2022-10-10T14:55:45.688Z,19.45
2022-10-10T14:58:22.067Z,19.54
2022-10-10T15:00:51.440Z,19.17
2022-10-10T15:03:18.979Z,19.02
2022-10-10T15:05:48.302Z,18.67
2022-10-10T15:08:18.571Z,18.81
2022-10-10T15:10:46.660Z,18.59
2022-10-10T15:13:15.593Z,18.65
2022-10-10T15:15:42.674Z,18.47
2022-10-10T15:18:32.113Z,17.96
2022-10-10T15:20:56.870Z,18.06
2022-10-10T15:23:23.834Z,17.97
2022-10-10T15:25:50.818Z,17.82
2022-10-10T15:28:17.825Z,17.74
2022-10-10T15:30:48.005Z,17.66
2022-10-10T15:33:15.131Z,17.36
2022-10-10T15:36:07.428Z,17.45
2022-10-10T15:38:32.696Z,17.49
2022-10-10T15:41:09.487Z,17.30
2022-10-10T15:43:54.386Z,17.26
2022-10-10T15:46:27.204Z,17.09
2022-10-10T15:48:59.421Z,17.17
2022-10-10T15:51:27.863Z,17.01
2022-10-10T15:53:59.616Z,17.09
2022-10-10T15:56:27.453Z,16.97
2022-10-10T15:59:01.013Z,16.92
2022-10-10T16:01:30.010Z,16.80
2022-10-10T16:03:58.477Z,16.76
2022-10-10T16:06:26.179Z,16.78
2022-10-10T16:09:10.124Z,16.68
2022-10-10T16:11:41.316Z,16.53
2022-10-10T16:14:08.329Z,16.37
2022-10-10T16:16:35.504Z,16.41
2022-10-10T16:19:02.625Z,16.31
2022-10-10T16:21:30.507Z,16.19
2022-10-10T16:23:58.251Z,16.21
2022-10-10T16:26:32.362Z,16.20
2022-10-10T16:29:01.432Z,16.14
2022-10-10T16:31:31.176Z,15.79
2022-10-10T16:33:59.279Z,15.84
2022-10-10T16:36:33.662Z,15.84
2022-10-10T16:39:09.836Z,15.58
2022-10-10T16:41:52.680Z,15.34
2022-10-10T16:44:19.664Z,15.16
2022-10-10T16:46:46.685Z,14.96
2022-10-10T16:49:20.381Z,14.82
2022-10-10T16:51:53.581Z,14.38
2022-10-10T16:54:20.639Z,14.39
2022-10-10T16:56:47.666Z,14.24
2022-10-10T16:59:14.854Z,14.23
2022-10-10T17:01:44.445Z,14.16
2022-10-10T17:04:15.369Z,14.07
2022-10-10T17:06:42.277Z,13.91
2022-10-10T17:09:11.334Z,13.80
2022-10-10T17:11:38.476Z,13.72
2022-10-10T17:14:05.431Z,13.70
2022-10-10T17:19:26.862Z,13.57
2022-10-10T17:21:53.891Z,13.39
2022-10-10T17:24:21.009Z,13.20
2022-10-10T17:26:48.209Z,13.00
2022-10-10T17:29:15.192Z,12.85
2022-10-10T17:31:42.627Z,12.86
2022-10-10T17:34:09.625Z,12.67
2022-10-10T17:36:36.634Z,12.69
2022-10-10T17:39:04.077Z,12.73
2022-10-10T17:41:33.169Z,12.66
2022-10-10T17:44:00.218Z,12.59
2022-10-10T17:46:34.823Z,12.49
2022-10-10T17:49:08.865Z,12.38
2022-10-10T17:51:38.554Z,12.23
2022-10-10T17:54:06.830Z,12.13
2022-10-10T17:56:34.668Z,12.03
2022-10-10T17:59:02.473Z,12.03
2022-10-10T18:01:33.008Z,12.09
2022-10-10T18:04:00.547Z,12.06
2022-10-10T18:06:29.103Z,12.06
2022-10-10T18:08:57.692Z,12.01
2022-10-10T18:11:30.118Z,12.26
2022-10-10T18:14:00.665Z,12.20
2022-10-10T18:16:33.858Z,12.27
2022-10-10T18:19:07.364Z,12.16
2022-10-10T18:21:35.106Z,12.34
2022-10-10T18:24:02.106Z,12.39
2022-10-10T18:26:31.062Z,12.24
2022-10-10T18:28:58.605Z,12.21
2022-10-10T18:31:33.612Z,12.17
2022-10-10T18:34:02.576Z,11.98
2022-10-10T18:36:33.909Z,12.01
2022-10-10T18:39:07.833Z,12.05
2022-10-10T18:41:35.335Z,12.06
2022-10-10T18:44:11.244Z,12.13
2022-10-10T18:46:39.910Z,12.23
2022-10-10T18:49:10.905Z,12.11
2022-10-10T18:51:39.777Z,12.19
2022-10-10T18:54:09.689Z,12.26
2022-10-10T18:56:40.065Z,12.43
2022-10-10T18:59:13.520Z,12.49
2022-10-10T19:01:40.693Z,12.32
2022-10-10T19:04:10.070Z,12.43
2022-10-10T19:06:39.725Z,12.38
2022-10-10T19:09:11.359Z,12.50
2022-10-10T19:11:43.040Z,12.16
2022-10-10T19:14:15.078Z,12.03
2022-10-10T19:16:43.859Z,11.97
2022-10-10T19:19:15.355Z,12.05
2022-10-10T19:21:44.858Z,11.86
2022-10-10T19:24:19.575Z,11.91
2022-10-10T19:26:52.018Z,11.90
2022-10-10T19:29:19.594Z,11.84
2022-10-10T19:31:46.601Z,11.91
2022-10-10T19:34:13.671Z,11.84
2022-10-10T19:36:42.257Z,11.80
2022-10-10T19:39:09.742Z,11.80
2022-10-10T19:41:36.878Z,11.79
2022-10-10T19:44:05.531Z,11.77
2022-10-10T19:46:36.635Z,11.50
2022-10-10T19:49:05.061Z,11.58
2022-10-10T19:51:32.265Z,11.51
2022-10-10T19:53:59.262Z,11.49
2022-10-10T19:56:27.539Z,11.34
2022-10-10T19:59:00.739Z,11.34
2022-10-10T20:01:30.334Z,11.30
2022-10-10T20:03:58.488Z,11.43
2022-10-10T20:06:26.292Z,11.59
2022-10-10T20:08:53.367Z,11.71
2022-10-10T20:11:21.414Z,11.65
2022-10-10T20:13:53.091Z,11.51
2022-10-10T20:16:22.307Z,11.75
2022-10-10T20:18:49.284Z,11.82
2022-10-10T20:21:25.411Z,11.87
2022-10-10T20:23:52.434Z,11.76
2022-10-10T20:26:23.480Z,11.87
2022-10-10T20:28:51.793Z,11.93
2022-10-10T20:31:35.391Z,12.13
2022-10-10T20:34:05.432Z,12.24
2022-10-10T20:36:34.628Z,12.28
2022-10-10T20:39:08.249Z,12.17
2022-10-10T20:41:38.430Z,12.38
2022-10-10T20:44:07.843Z,12.31
2022-10-10T20:46:38.981Z,12.41
2022-10-10T20:49:16.062Z,12.43
2022-10-10T20:51:48.167Z,12.74
2022-10-10T20:54:19.287Z,12.80
2022-10-10T20:56:48.428Z,13.19
2022-10-10T20:59:16.706Z,13.57
2022-10-10T21:01:45.634Z,13.63
2022-10-10T21:04:16.299Z,13.37
2022-10-10T21:06:43.398Z,13.54
2022-10-10T21:09:14.900Z,13.54
2022-10-10T21:11:42.511Z,13.75
2022-10-10T21:14:10.728Z,13.24
2022-10-10T21:16:41.068Z,13.62
2022-10-10T21:19:12.695Z,13.61
2022-10-10T21:21:40.549Z,13.37
2022-10-10T21:24:12.813Z,13.42
2022-10-10T21:26:41.671Z,13.58
2022-10-10T21:29:09.559Z,13.47
2022-10-10T21:31:39.610Z,13.51
2022-10-10T21:34:13.368Z,13.54
2022-10-10T21:36:40.307Z,13.76
2022-10-10T21:39:07.401Z,13.60
2022-10-10T21:41:36.486Z,13.55
2022-10-10T21:44:03.842Z,13.77
2022-10-10T21:46:36.552Z,13.55
2022-10-10T21:49:10.747Z,13.57
2022-10-10T21:51:42.594Z,13.66
2022-10-10T21:54:10.206Z,13.44
2022-10-10T21:56:38.284Z,13.61
2022-10-10T21:59:05.687Z,13.49
2022-10-10T22:01:33.304Z,13.66
2022-10-10T22:04:02.606Z,13.45
2022-10-10T22:06:30.377Z,13.54
2022-10-10T22:09:00.368Z,13.43
2022-10-10T22:11:30.498Z,13.20
2022-10-10T22:13:57.891Z,13.29
2022-10-10T22:16:25.027Z,13.21
2022-10-10T22:18:56.886Z,13.29
2022-10-10T22:21:29.983Z,13.23
2022-10-10T22:24:04.948Z,13.24
2022-10-10T22:26:32.055Z,13.21
2022-10-10T22:28:59.450Z,13.22
2022-10-10T22:31:26.947Z,13.08
2022-10-10T22:33:53.914Z,12.88
2022-10-10T22:36:20.860Z,12.93
2022-10-10T22:38:47.797Z,13.06
2022-10-10T22:41:14.860Z,13.21
2022-10-10T22:43:41.829Z,13.03
2022-10-10T22:46:09.553Z,13.01
2022-10-10T22:48:37.330Z,12.93
2022-10-10T22:51:16.102Z,12.77
2022-10-10T22:53:45.735Z,12.82
2022-10-10T22:56:16.215Z,12.85
2022-10-10T22:58:44.014Z,12.76
2022-10-10T23:01:18.530Z,12.75
2022-10-10T23:03:45.763Z,12.68
2022-10-10T23:06:13.529Z,12.56
2022-10-10T23:08:40.812Z,12.60
2022-10-10T23:11:07.984Z,12.47
2022-10-10T23:13:34.925Z,12.47
2022-10-10T23:16:02.413Z,12.46
2022-10-10T23:18:30.752Z,12.53
2022-10-10T23:20:59.269Z,12.33
2022-10-10T23:23:26.607Z,12.26
2022-10-10T23:25:53.636Z,12.22
2022-10-10T23:28:20.803Z,12.14
2022-10-10T23:30:48.826Z,12.09
2022-10-10T23:33:17.138Z,12.06
2022-10-10T23:35:44.049Z,11.93
2022-10-10T23:38:11.246Z,11.86
2022-10-10T23:40:38.250Z,11.82
2022-10-10T23:43:07.257Z,11.92
2022-10-10T23:45:34.240Z,11.62
2022-10-10T23:48:01.161Z,11.63
2022-10-10T23:50:29.307Z,11.58
2022-10-10T23:52:56.428Z,11.61
2022-10-10T23:55:23.408Z,11.59
2022-10-10T23:57:50.406Z,11.61
